createdAt,value
2023-01-13T00:00:04.626Z,76.02
2023-01-13T00:02:32.626Z,75.93
2023-01-13T00:05:00.440Z,76.06
2023-01-13T00:07:28.216Z,75.96
2023-01-13T00:09:55.910Z,75.88
2023-01-13T00:12:23.661Z,75.84
2023-01-13T00:14:51.348Z,76.04
2023-01-13T00:17:19.077Z,76.04
2023-01-13T00:19:46.875Z,75.80
2023-01-13T00:22:14.577Z,75.71
2023-01-13T00:24:42.291Z,76.00
2023-01-13T00:27:10.020Z,75.95
2023-01-13T00:29:37.760Z,75.78
2023-01-13T00:32:05.487Z,75.84
2023-01-13T00:34:33.237Z,75.98
2023-01-13T00:37:00.993Z,75.90
2023-01-13T00:39:28.784Z,75.82
2023-01-13T00:42:15.253Z,75.81
2023-01-13T00:44:42.941Z,75.99
2023-01-13T00:47:10.647Z,75.66
2023-01-13T00:49:38.417Z,75.66
2023-01-13T00:52:06.200Z,75.82
2023-01-13T00:54:33.887Z,75.88
2023-01-13T00:57:01.593Z,75.87
2023-01-13T00:59:29.295Z,76.03
2023-01-13T01:01:57.098Z,75.79
2023-01-13T01:04:24.958Z,75.81
2023-01-13T01:06:52.624Z,75.81
2023-01-13T01:09:20.496Z,75.84
2023-01-13T01:11:48.182Z,75.79
2023-01-13T01:14:15.955Z,75.73
2023-01-13T01:16:43.743Z,75.65
2023-01-13T01:19:11.431Z,75.75
2023-01-13T01:21:39.212Z,75.82
2023-01-13T01:24:06.907Z,75.79
2023-01-13T01:26:34.656Z,75.83
2023-01-13T01:29:02.498Z,75.62
2023-01-13T01:31:31.628Z,75.69
2023-01-13T01:33:59.441Z,75.65
2023-01-13T01:36:27.174Z,75.65
2023-01-13T01:38:54.875Z,75.58
2023-01-13T01:41:22.611Z,75.52
2023-01-13T01:43:59.493Z,75.61
2023-01-13T01:46:27.403Z,75.70
2023-01-13T01:48:55.115Z,75.71
2023-01-13T01:51:22.801Z,75.92
2023-01-13T01:53:50.531Z,75.73
2023-01-13T01:56:18.245Z,75.85
2023-01-13T01:58:46.030Z,75.76
2023-01-13T02:01:13.895Z,75.82
2023-01-13T02:03:41.729Z,75.72
2023-01-13T02:06:09.429Z,75.40
2023-01-13T02:08:37.126Z,75.51
2023-01-13T02:11:04.808Z,75.65
2023-01-13T02:13:32.502Z,75.51
2023-01-13T02:16:00.249Z,75.71
2023-01-13T02:18:27.978Z,75.63
2023-01-13T02:20:55.661Z,75.65
2023-01-13T02:23:42.200Z,75.63
2023-01-13T02:26:09.892Z,75.69
2023-01-13T02:28:37.579Z,75.75
2023-01-13T02:31:24.140Z,75.72
2023-01-13T02:33:51.836Z,75.41
2023-01-13T02:36:19.569Z,75.52
2023-01-13T02:38:47.342Z,75.74
2023-01-13T02:41:34.032Z,75.69
2023-01-13T02:44:07.787Z,75.63
2023-01-13T02:46:35.532Z,75.62
2023-01-13T02:49:03.226Z,75.63
2023-01-13T02:51:30.933Z,75.67
2023-01-13T02:53:58.621Z,75.49
2023-01-13T02:56:26.356Z,75.62
2023-01-13T02:58:54.087Z,75.43
2023-01-13T03:01:21.941Z,75.40
2023-01-13T03:03:50.332Z,75.54
2023-01-13T03:06:17.954Z,75.62
2023-01-13T03:08:46.874Z,75.55
2023-01-13T03:11:14.482Z,75.43
2023-01-13T03:13:42.116Z,75.58
2023-01-13T03:16:09.812Z,75.42
2023-01-13T03:18:37.547Z,75.51
2023-01-13T03:21:05.162Z,75.37
2023-01-13T03:23:32.762Z,75.37
2023-01-13T03:26:00.399Z,75.34
2023-01-13T03:28:27.992Z,75.21
2023-01-13T03:30:55.714Z,75.40
2023-01-13T03:33:23.359Z,75.44
2023-01-13T03:35:51.013Z,75.47
2023-01-13T03:38:18.695Z,75.44
2023-01-13T03:40:46.308Z,75.51
2023-01-13T03:43:32.852Z,75.44
2023-01-13T03:46:00.526Z,75.38
2023-01-13T03:48:28.174Z,75.54
2023-01-13T03:50:56.473Z,75.43
2023-01-13T03:53:24.143Z,75.34
2023-01-13T03:55:51.749Z,75.31
2023-01-13T03:58:19.444Z,75.49
2023-01-13T04:00:47.108Z,75.40
2023-01-13T04:03:14.734Z,75.43
2023-01-13T04:05:42.337Z,75.46
2023-01-13T04:08:09.951Z,75.32
2023-01-13T04:10:37.578Z,75.40
2023-01-13T04:13:05.324Z,75.40
2023-01-13T04:15:33.072Z,75.48
2023-01-13T04:18:00.716Z,75.45
2023-01-13T04:20:28.334Z,75.23
2023-01-13T04:22:55.967Z,75.22
2023-01-13T04:25:23.587Z,75.24
2023-01-13T04:27:51.224Z,75.38
2023-01-13T04:30:18.875Z,75.41
2023-01-13T04:32:46.517Z,75.48
2023-01-13T04:35:14.127Z,75.35
2023-01-13T04:37:42.063Z,75.55
2023-01-13T04:40:09.677Z,75.25
2023-01-13T04:42:37.313Z,75.53
2023-01-13T04:45:04.972Z,75.46
2023-01-13T04:47:32.594Z,75.36
2023-01-13T04:50:00.235Z,75.31
2023-01-13T04:52:27.837Z,75.51
2023-01-13T04:54:56.349Z,75.53
2023-01-13T04:57:24.209Z,75.54
2023-01-13T04:59:51.818Z,75.46
2023-01-13T05:02:22.377Z,75.39
2023-01-13T05:04:50.243Z,75.46
2023-01-13T05:07:18.599Z,75.43
2023-01-13T05:09:46.213Z,75.54
2023-01-13T05:12:32.495Z,75.50
2023-01-13T05:15:18.840Z,75.41
2023-01-13T05:17:46.501Z,75.41
2023-01-13T05:20:14.164Z,75.53
2023-01-13T05:23:00.413Z,75.55
2023-01-13T05:25:28.445Z,75.61
2023-01-13T05:27:56.097Z,75.43
2023-01-13T05:30:23.723Z,75.58
2023-01-13T05:32:51.351Z,75.58
2023-01-13T05:35:19.017Z,75.56
2023-01-13T05:37:46.687Z,75.51
2023-01-13T05:40:33.165Z,75.44
2023-01-13T05:43:19.796Z,75.47
2023-01-13T05:45:47.429Z,75.50
2023-01-13T05:48:15.072Z,75.57
2023-01-13T05:50:42.896Z,75.51
2023-01-13T05:53:10.527Z,75.65
2023-01-13T05:55:38.141Z,75.59
2023-01-13T05:58:06.662Z,75.58
2023-01-13T06:00:34.272Z,75.58
2023-01-13T06:03:02.267Z,75.63
2023-01-13T06:05:29.928Z,75.43
2023-01-13T06:07:58.010Z,75.43
2023-01-13T06:10:25.711Z,75.32
2023-01-13T06:12:53.332Z,75.44
2023-01-13T06:15:20.961Z,75.66
2023-01-13T06:17:48.614Z,75.55
2023-01-13T06:20:16.244Z,75.48
2023-01-13T06:22:43.936Z,75.42
2023-01-13T06:25:11.757Z,75.46
2023-01-13T06:27:39.429Z,75.39
2023-01-13T06:30:07.035Z,75.47
2023-01-13T06:32:34.644Z,75.40
2023-01-13T06:35:04.719Z,75.23
2023-01-13T06:37:33.159Z,75.22
2023-01-13T06:40:00.798Z,75.28
2023-01-13T06:42:47.315Z,75.31
2023-01-13T06:45:14.933Z,75.24
2023-01-13T06:47:43.635Z,75.37
2023-01-13T06:50:11.272Z,75.39
2023-01-13T06:52:38.896Z,75.41
2023-01-13T06:55:06.570Z,75.35
2023-01-13T06:57:34.213Z,75.06
2023-01-13T07:00:01.844Z,75.07
2023-01-13T07:02:29.529Z,75.36
2023-01-13T07:04:57.238Z,75.25
2023-01-13T07:07:24.932Z,75.40
2023-01-13T07:09:52.808Z,75.24
2023-01-13T07:12:20.493Z,75.19
2023-01-13T07:15:07.047Z,75.18
2023-01-13T07:17:34.668Z,75.22
2023-01-13T07:20:02.324Z,75.29
2023-01-13T07:22:29.981Z,75.28
2023-01-13T07:24:58.232Z,75.23
2023-01-13T07:27:25.844Z,75.27
2023-01-13T07:29:53.569Z,75.41
2023-01-13T07:32:21.169Z,75.44
2023-01-13T07:34:48.881Z,75.42
2023-01-13T07:37:16.527Z,75.34
2023-01-13T07:39:45.542Z,75.44
2023-01-13T07:42:31.819Z,75.46
2023-01-13T07:44:59.445Z,75.57
2023-01-13T07:47:27.065Z,75.42
2023-01-13T07:49:54.680Z,75.22
2023-01-13T07:52:22.377Z,75.27
2023-01-13T07:54:50.428Z,75.42
2023-01-13T07:57:18.045Z,75.39
2023-01-13T07:59:45.641Z,75.57
2023-01-13T08:02:13.413Z,75.58
2023-01-13T08:04:41.486Z,75.43
2023-01-13T08:07:09.110Z,75.49
2023-01-13T08:09:36.717Z,75.46
2023-01-13T08:12:23.104Z,75.42
2023-01-13T08:14:51.903Z,75.19
2023-01-13T08:17:20.601Z,75.53
2023-01-13T08:19:48.561Z,75.56
2023-01-13T08:22:16.244Z,75.58
2023-01-13T08:24:43.853Z,75.63
2023-01-13T08:27:11.503Z,75.58
2023-01-13T08:29:39.259Z,75.74
2023-01-13T08:32:06.872Z,75.68
2023-01-13T08:34:34.488Z,75.55
2023-01-13T08:37:02.127Z,75.52
2023-01-13T08:39:29.775Z,75.49
2023-01-13T08:41:58.807Z,75.57
2023-01-13T08:44:26.579Z,75.60
2023-01-13T08:46:54.209Z,75.57
2023-01-13T08:49:21.892Z,75.50
2023-01-13T08:51:49.677Z,75.45
2023-01-13T08:54:17.313Z,75.64
2023-01-13T08:56:45.003Z,75.60
2023-01-13T08:59:12.733Z,75.64
2023-01-13T09:01:41.187Z,75.48
2023-01-13T09:04:08.900Z,75.48
2023-01-13T09:06:36.867Z,75.19
2023-01-13T09:09:04.565Z,75.47
2023-01-13T09:11:50.999Z,75.47
2023-01-13T09:14:18.931Z,75.41
2023-01-13T09:16:46.616Z,75.42
2023-01-13T09:19:14.299Z,75.33
2023-01-13T09:21:42.123Z,75.37
2023-01-13T09:24:09.737Z,75.45
2023-01-13T09:26:37.346Z,75.44
2023-01-13T09:29:04.940Z,75.06
2023-01-13T09:31:34.658Z,75.22
2023-01-13T09:34:20.787Z,75.42
2023-01-13T09:36:48.421Z,75.42
2023-01-13T09:39:16.071Z,75.46
2023-01-13T09:42:02.743Z,75.37
2023-01-13T09:44:30.435Z,75.35
2023-01-13T09:46:58.059Z,75.42
2023-01-13T09:49:25.660Z,75.61
2023-01-13T09:51:53.285Z,75.51
2023-01-13T09:54:20.977Z,75.17
2023-01-13T09:56:48.673Z,75.28
2023-01-13T09:59:16.429Z,75.16
2023-01-13T10:01:44.039Z,75.15
2023-01-13T10:04:11.694Z,75.50
2023-01-13T10:06:39.562Z,75.05
2023-01-13T10:09:07.194Z,75.40
2023-01-13T10:11:53.745Z,75.36
2023-01-13T10:14:21.374Z,75.21
2023-01-13T10:16:49.033Z,75.37
2023-01-13T10:19:16.736Z,74.92
2023-01-13T10:21:44.351Z,74.91
2023-01-13T10:24:12.089Z,74.92
2023-01-13T10:26:39.745Z,74.93
2023-01-13T10:29:07.392Z,75.31
2023-01-13T10:31:35.039Z,75.06
2023-01-13T10:34:04.139Z,74.97
2023-01-13T10:36:31.791Z,75.08
2023-01-13T10:38:59.425Z,74.98
2023-01-13T10:41:27.165Z,74.87
2023-01-13T10:43:54.787Z,75.08
2023-01-13T10:46:22.501Z,74.71
2023-01-13T10:48:50.300Z,74.85
2023-01-13T10:51:17.896Z,74.68
2023-01-13T10:53:45.573Z,74.86
2023-01-13T10:56:13.206Z,75.01
2023-01-13T10:58:40.848Z,74.95
2023-01-13T11:01:09.773Z,74.68
2023-01-13T11:03:37.784Z,74.73
2023-01-13T11:06:05.470Z,74.53
2023-01-13T11:08:33.090Z,74.75
2023-01-13T11:11:00.751Z,74.68
2023-01-13T11:13:28.364Z,74.14
2023-01-13T11:15:56.076Z,74.28
2023-01-13T11:18:23.966Z,74.28
2023-01-13T11:20:51.596Z,74.14
2023-01-13T11:23:22.051Z,74.02
2023-01-13T11:25:50.477Z,74.21
2023-01-13T11:28:18.146Z,74.10
2023-01-13T11:30:45.775Z,74.03
2023-01-13T11:33:13.371Z,73.36
2023-01-13T11:35:41.007Z,73.36
2023-01-13T11:38:09.021Z,73.33
2023-01-13T11:40:37.019Z,73.23
2023-01-13T11:43:04.623Z,73.21
2023-01-13T11:45:32.238Z,73.13
2023-01-13T11:47:59.842Z,72.96
2023-01-13T11:50:27.483Z,73.28
2023-01-13T11:52:55.091Z,73.09
2023-01-13T11:55:22.950Z,73.62
2023-01-13T11:57:50.655Z,73.37
2023-01-13T12:00:18.276Z,73.30
2023-01-13T12:02:46.019Z,73.05
2023-01-13T12:05:13.765Z,73.08
2023-01-13T12:07:41.379Z,73.01
2023-01-13T12:10:13.221Z,72.90
2023-01-13T12:12:41.371Z,73.03
2023-01-13T12:15:09.142Z,72.86
2023-01-13T12:17:36.781Z,73.27
2023-01-13T12:20:04.509Z,73.14
2023-01-13T12:22:32.128Z,73.31
2023-01-13T12:24:59.732Z,72.95
2023-01-13T12:27:27.362Z,73.09
2023-01-13T12:29:57.195Z,72.86
2023-01-13T12:32:24.853Z,73.39
2023-01-13T12:34:52.466Z,72.83
2023-01-13T12:37:20.084Z,72.82
2023-01-13T12:39:47.734Z,72.91
2023-01-13T12:42:34.359Z,73.24
2023-01-13T12:45:01.984Z,73.00
2023-01-13T12:47:29.652Z,73.05
2023-01-13T12:49:57.269Z,72.69
2023-01-13T12:52:25.211Z,72.95
2023-01-13T12:54:54.012Z,72.97
2023-01-13T12:57:21.644Z,72.94
2023-01-13T12:59:49.736Z,73.16
2023-01-13T13:02:18.098Z,73.24
2023-01-13T13:04:48.595Z,73.07
2023-01-13T13:07:16.225Z,72.94
2023-01-13T13:09:44.168Z,72.78
2023-01-13T13:12:11.818Z,72.48
2023-01-13T13:14:39.517Z,72.73
2023-01-13T13:17:07.202Z,72.50
2023-01-13T13:19:34.817Z,72.95
2023-01-13T13:22:02.411Z,73.07
2023-01-13T13:24:30.030Z,72.86
2023-01-13T13:26:57.897Z,73.15
2023-01-13T13:29:25.540Z,73.02
2023-01-13T13:31:53.154Z,72.75
2023-01-13T13:34:20.745Z,73.17
2023-01-13T13:36:48.377Z,73.04
2023-01-13T13:39:34.927Z,72.78
2023-01-13T13:42:21.350Z,72.79
2023-01-13T13:45:07.659Z,73.01
2023-01-13T13:47:35.268Z,73.23
2023-01-13T13:50:02.922Z,73.01
2023-01-13T13:52:30.639Z,72.89
2023-01-13T13:54:58.323Z,72.71
2023-01-13T13:57:25.938Z,72.71
2023-01-13T13:59:53.598Z,72.86
2023-01-13T14:02:21.282Z,72.66
2023-01-13T14:04:49.113Z,73.02
2023-01-13T14:07:18.498Z,72.89
2023-01-13T14:09:46.119Z,73.10
2023-01-13T14:12:14.438Z,72.99
2023-01-13T14:14:42.038Z,73.06
2023-01-13T14:17:09.690Z,72.91
2023-01-13T14:19:40.497Z,72.86
2023-01-13T14:22:08.130Z,73.11
2023-01-13T14:24:35.767Z,73.09
2023-01-13T14:27:03.490Z,72.99
2023-01-13T14:29:31.132Z,72.79
2023-01-13T14:31:58.732Z,72.96
2023-01-13T14:34:31.858Z,73.24
2023-01-13T14:37:00.785Z,72.85
2023-01-13T14:39:28.467Z,72.95
2023-01-13T14:41:56.989Z,73.05
2023-01-13T14:44:25.782Z,73.04
2023-01-13T14:46:55.400Z,73.10
2023-01-13T14:49:23.004Z,73.10
2023-01-13T14:51:50.635Z,73.08
2023-01-13T14:54:18.253Z,73.18
2023-01-13T14:56:47.395Z,72.89
2023-01-13T14:59:14.999Z,73.25
2023-01-13T15:01:42.746Z,72.96
2023-01-13T15:04:10.569Z,73.07
2023-01-13T15:06:38.244Z,73.07
2023-01-13T15:09:05.913Z,73.37
2023-01-13T15:11:33.545Z,73.13
2023-01-13T15:14:04.340Z,73.42
2023-01-13T15:16:34.567Z,73.38
2023-01-13T15:19:03.478Z,73.43
2023-01-13T15:21:31.106Z,73.48
2023-01-13T15:24:00.042Z,73.55
2023-01-13T15:26:27.728Z,73.44
2023-01-13T15:28:55.802Z,73.39
2023-01-13T15:31:23.580Z,73.22
2023-01-13T15:33:51.367Z,73.38
2023-01-13T15:36:18.984Z,73.40
2023-01-13T15:38:46.661Z,73.37
2023-01-13T15:41:14.294Z,73.40
2023-01-13T15:44:01.016Z,73.54
2023-01-13T15:46:38.085Z,73.10
2023-01-13T15:49:09.955Z,73.53
2023-01-13T15:51:41.481Z,73.46
2023-01-13T15:54:09.181Z,73.42
2023-01-13T15:56:36.853Z,73.56
2023-01-13T15:59:04.604Z,73.38
2023-01-13T16:01:32.352Z,73.33
2023-01-13T16:04:00.036Z,73.54
2023-01-13T16:06:28.042Z,73.22
2023-01-13T16:08:55.696Z,73.55
2023-01-13T16:11:23.311Z,73.31
2023-01-13T16:13:51.194Z,73.36
2023-01-13T16:16:19.017Z,73.11
2023-01-13T16:18:46.664Z,73.24
2023-01-13T16:21:14.757Z,73.28
2023-01-13T16:23:42.458Z,73.29
2023-01-13T16:26:10.085Z,73.23
2023-01-13T16:28:37.709Z,73.28
2023-01-13T16:31:05.323Z,73.22
2023-01-13T16:33:32.928Z,73.30
2023-01-13T16:36:11.790Z,73.42
2023-01-13T16:38:40.451Z,72.96
2023-01-13T16:41:08.494Z,73.04
2023-01-13T16:43:36.372Z,73.09
2023-01-13T16:46:04.275Z,73.16
2023-01-13T16:48:32.135Z,72.86
2023-01-13T16:50:59.808Z,72.93
2023-01-13T16:53:28.041Z,72.92
2023-01-13T16:55:55.655Z,72.71
2023-01-13T16:58:23.584Z,72.50
2023-01-13T17:00:53.151Z,72.82
2023-01-13T17:03:21.027Z,72.77
2023-01-13T17:05:48.741Z,72.71
2023-01-13T17:08:17.944Z,72.87
2023-01-13T17:10:45.959Z,72.95
2023-01-13T17:13:16.776Z,72.68
2023-01-13T17:15:44.803Z,72.62
2023-01-13T17:18:13.750Z,72.95
2023-01-13T17:20:41.493Z,72.95
2023-01-13T17:23:09.108Z,72.81
2023-01-13T17:25:36.699Z,72.74
2023-01-13T17:28:04.323Z,72.64
2023-01-13T17:30:31.935Z,72.74
2023-01-13T17:32:59.531Z,72.64
2023-01-13T17:35:27.725Z,72.63
2023-01-13T17:37:55.367Z,72.78
2023-01-13T17:40:23.086Z,72.69
2023-01-13T17:42:50.777Z,72.78
2023-01-13T17:45:18.443Z,72.35
2023-01-13T17:47:47.411Z,72.52
2023-01-13T17:50:15.220Z,72.97
2023-01-13T17:52:42.829Z,72.63
2023-01-13T17:55:10.424Z,72.84
2023-01-13T17:57:38.052Z,72.75
2023-01-13T18:00:05.687Z,72.59
2023-01-13T18:02:33.552Z,72.50
2023-01-13T18:05:01.222Z,72.54
2023-01-13T18:07:28.843Z,72.50
2023-01-13T18:09:56.448Z,72.97
2023-01-13T18:12:24.069Z,72.72
2023-01-13T18:14:51.713Z,73.04
2023-01-13T18:17:19.419Z,72.88
2023-01-13T18:20:06.023Z,72.60
2023-01-13T18:22:52.461Z,72.67
2023-01-13T18:25:38.743Z,72.80
2023-01-13T18:28:06.409Z,72.47
2023-01-13T18:30:34.086Z,72.41
2023-01-13T18:33:01.762Z,72.24
2023-01-13T18:35:30.277Z,72.39
2023-01-13T18:37:57.873Z,72.44
2023-01-13T18:40:25.703Z,72.19
2023-01-13T18:42:56.402Z,72.15
2023-01-13T18:45:24.501Z,72.60
2023-01-13T18:47:52.153Z,72.45
2023-01-13T18:50:19.777Z,72.68
2023-01-13T18:52:47.505Z,72.67
2023-01-13T18:55:15.120Z,72.76
2023-01-13T18:57:42.757Z,72.79
2023-01-13T19:00:10.426Z,72.85
2023-01-13T19:02:38.183Z,72.66
2023-01-13T19:05:05.876Z,73.08
2023-01-13T19:07:35.697Z,72.92
2023-01-13T19:10:04.476Z,72.84
2023-01-13T19:12:33.862Z,72.92
2023-01-13T19:15:01.563Z,73.03
2023-01-13T19:17:29.316Z,73.07
2023-01-13T19:19:58.512Z,73.07
2023-01-13T19:22:27.438Z,73.13
2023-01-13T19:24:55.040Z,73.07
2023-01-13T19:27:22.685Z,72.93
2023-01-13T19:29:51.994Z,73.12
2023-01-13T19:32:20.344Z,72.83
2023-01-13T19:34:49.515Z,73.16
2023-01-13T19:37:17.198Z,73.05
2023-01-13T19:39:44.879Z,73.18
2023-01-13T19:42:31.523Z,72.94
2023-01-13T19:45:18.142Z,73.01
2023-01-13T19:47:46.081Z,73.00
2023-01-13T19:50:13.819Z,73.14
2023-01-13T19:52:41.564Z,72.98
2023-01-13T19:55:09.943Z,72.96
2023-01-13T19:57:39.390Z,73.07
2023-01-13T20:00:07.090Z,72.99
2023-01-13T20:02:36.784Z,73.00
2023-01-13T20:05:06.718Z,73.38
2023-01-13T20:07:35.380Z,73.45
2023-01-13T20:10:03.086Z,73.29
2023-01-13T20:12:30.713Z,73.33
2023-01-13T20:14:58.326Z,73.23
2023-01-13T20:17:26.541Z,73.24
2023-01-13T20:19:54.636Z,72.99
2023-01-13T20:22:22.282Z,73.20
2023-01-13T20:24:55.091Z,73.30
2023-01-13T20:27:24.066Z,73.17
2023-01-13T20:29:51.857Z,73.23
2023-01-13T20:32:19.498Z,73.42
2023-01-13T20:34:47.122Z,73.16
2023-01-13T20:37:14.760Z,73.17
2023-01-13T20:39:46.581Z,73.25
2023-01-13T20:42:29.662Z,72.93
2023-01-13T20:44:57.477Z,72.93
2023-01-13T20:47:25.168Z,72.83
2023-01-13T20:49:52.800Z,72.87
2023-01-13T20:52:20.395Z,72.89
2023-01-13T20:54:47.989Z,73.00
2023-01-13T20:57:15.732Z,73.28
2023-01-13T20:59:43.356Z,73.13
2023-01-13T21:02:10.951Z,73.91
2023-01-13T21:04:38.553Z,73.85
2023-01-13T21:07:06.165Z,73.92
2023-01-13T21:09:33.918Z,74.23
2023-01-13T21:12:20.221Z,74.22
2023-01-13T21:15:06.680Z,74.44
2023-01-13T21:17:52.955Z,74.63
2023-01-13T21:20:20.803Z,75.15
2023-01-13T21:22:48.400Z,75.50
2023-01-13T21:25:16.741Z,75.73
2023-01-13T21:27:44.386Z,75.98
2023-01-13T21:30:15.641Z,76.14
2023-01-13T21:32:43.360Z,76.38
2023-01-13T21:35:11.045Z,76.58
2023-01-13T21:37:38.693Z,77.34
2023-01-13T21:40:06.341Z,77.60
2023-01-13T21:42:52.718Z,77.60
2023-01-13T21:45:39.444Z,77.86
2023-01-13T21:48:07.350Z,77.92
2023-01-13T21:50:34.951Z,78.16
2023-01-13T21:53:02.570Z,78.32
2023-01-13T21:55:30.577Z,78.58
2023-01-13T21:57:58.320Z,78.79
2023-01-13T22:00:25.988Z,78.90
2023-01-13T22:02:53.679Z,79.00
2023-01-13T22:05:21.641Z,78.87
2023-01-13T22:07:49.260Z,78.86
2023-01-13T22:10:16.872Z,79.02
2023-01-13T22:12:44.789Z,79.14
2023-01-13T22:15:13.314Z,79.33
2023-01-13T22:17:42.396Z,79.42
2023-01-13T22:20:10.445Z,79.35
2023-01-13T22:22:38.366Z,79.23
2023-01-13T22:25:07.203Z,79.11
2023-01-13T22:27:39.593Z,79.42
2023-01-13T22:30:07.487Z,79.51
2023-01-13T22:32:35.374Z,79.65
2023-01-13T22:35:03.256Z,79.44
2023-01-13T22:37:31.121Z,79.76
2023-01-13T22:39:59.010Z,79.45
2023-01-13T22:42:26.892Z,79.72
2023-01-13T22:44:54.753Z,79.98
2023-01-13T22:47:22.668Z,80.06
2023-01-13T22:49:50.586Z,80.02
2023-01-13T22:52:18.443Z,80.22
2023-01-13T22:54:46.351Z,80.27
2023-01-13T22:57:14.400Z,80.26
2023-01-13T22:59:42.514Z,80.25
2023-01-13T23:02:10.424Z,80.34
2023-01-13T23:04:38.353Z,80.44
2023-01-13T23:07:06.281Z,80.44
2023-01-13T23:09:34.254Z,80.51
2023-01-13T23:12:02.138Z,80.32
2023-01-13T23:14:30.019Z,80.51
2023-01-13T23:16:57.917Z,80.60
2023-01-13T23:19:25.911Z,80.67
2023-01-13T23:21:53.789Z,80.70
2023-01-13T23:24:26.042Z,80.73
2023-01-13T23:26:53.909Z,80.66
2023-01-13T23:29:21.806Z,80.60
2023-01-13T23:31:49.663Z,80.74
2023-01-13T23:34:17.545Z,80.94
2023-01-13T23:36:45.801Z,81.22
2023-01-13T23:39:13.736Z,81.22
2023-01-13T23:41:41.619Z,81.22
2023-01-13T23:44:09.494Z,80.92
2023-01-13T23:46:37.457Z,81.20
2023-01-13T23:49:05.386Z,81.05
2023-01-13T23:51:33.407Z,81.40
2023-01-13T23:54:01.724Z,81.25
2023-01-13T23:56:29.593Z,81.09
2023-01-13T23:58:57.532Z,80.95
